Time;durP1;ratioP1;P1;durP2;ratioP2;P2;SDS_P1;SDS_P2;PMS_P1;PMS_P2;Temp;Humidity;BMP_temperature;BMP_pressure;BME280_temperature;BME280_humidity;BME280_pressure;Samples;Min_cycle;Max_cycle;Signal;HPM_P1;HPM_P2
2022/03/06 00:00:40;;;;;;;13.70;9.30;;;;;;;-2.71;58.07;95742.22;4933843;29;20228;-79
2022/03/06 00:03:05;;;;;;;16.00;10.30;;;;;;;-2.73;58.12;95738.09;4933408;29;20598;-80
2022/03/06 00:05:31;;;;;;;16.27;9.73;;;;;;;-2.68;57.69;95733.63;4933740;29;20169;-79
2022/03/06 00:07:59;;;;;;;16.70;9.50;;;;;;;-2.76;57.64;95739.00;4935196;29;20181;-79
2022/03/06 00:10:24;;;;;;;19.47;10.67;;;;;;;-2.83;58.42;95735.06;4934182;29;20221;-79
2022/03/06 00:12:49;;;;;;;16.97;10.03;;;;;;;-2.91;58.19;95732.88;4933375;29;20276;-79
2022/03/06 00:15:14;;;;;;;17.17;9.93;;;;;;;-2.92;58.66;95730.34;4934455;29;20197;-79
2022/03/06 00:17:40;;;;;;;17.47;9.80;;;;;;;-3.01;58.81;95734.09;4918022;29;20179;-80
2022/03/06 00:20:08;;;;;;;14.80;9.13;;;;;;;-3.10;58.47;95731.09;4917010;29;20213;-80
2022/03/06 00:22:35;;;;;;;16.67;9.53;;;;;;;-3.18;58.90;95724.63;4932973;29;20225;-79
2022/03/06 00:25:00;;;;;;;14.40;8.77;;;;;;;-3.21;59.64;95727.28;4934011;29;20182;-79
2022/03/06 00:27:25;;;;;;;18.83;10.07;;;;;;;-3.25;59.45;95720.66;4938676;29;20178;-79
2022/03/06 00:29:51;;;;;;;14.77;9.47;;;;;;;-3.02;58.70;95724.00;4922763;29;20174;-80
2022/03/06 00:32:16;;;;;;;18.90;9.80;;;;;;;-3.13;59.24;95722.72;4936672;29;20187;-79
2022/03/06 00:34:42;;;;;;;17.57;9.13;;;;;;;-3.08;59.55;95717.47;4937278;29;20195;-79
2022/03/06 00:37:07;;;;;;;19.07;10.50;;;;;;;-3.15;59.23;95716.88;4921220;29;20562;-78
2022/03/06 00:39:34;;;;;;;14.93;9.47;;;;;;;-3.20;60.02;95721.31;4921355;29;20182;-79
2022/03/06 00:42:00;;;;;;;17.83;10.63;;;;;;;-3.19;59.68;95714.50;4920744;29;20745;-78
2022/03/06 00:44:25;;;;;;;16.17;10.13;;;;;;;-3.20;60.09;95723.84;4937051;29;20270;-79
2022/03/06 00:46:51;;;;;;;17.50;9.47;;;;;;;-3.23;59.74;95716.34;4936669;29;20186;-79
2022/03/06 00:49:16;;;;;;;17.30;9.57;;;;;;;-3.27;59.66;95719.06;4921258;29;20669;-79
2022/03/06 00:51:41;;;;;;;17.20;9.73;;;;;;;-3.19;59.73;95724.66;4920693;29;20200;-79
2022/03/06 00:54:06;;;;;;;18.07;10.10;;;;;;;-3.20;60.01;95725.56;4936880;29;20205;-79
2022/03/06 00:56:32;;;;;;;15.80;9.60;;;;;;;-3.26;60.19;95728.34;4936834;29;20182;-79
2022/03/06 00:58:57;;;;;;;16.53;9.90;;;;;;;-3.34;60.01;95736.28;4937036;29;20208;-79
2022/03/06 01:01:22;;;;;;;18.93;10.97;;;;;;;-3.36;60.18;95729.56;4920425;29;20198;-79
2022/03/06 01:03:47;;;;;;;15.53;9.23;;;;;;;-3.39;60.97;95732.25;4921135;29;20291;-80
2022/03/06 01:06:13;;;;;;;17.70;10.07;;;;;;;-3.45;60.66;95723.13;4920880;29;20181;-78
2022/03/06 01:08:38;;;;;;;17.63;9.83;;;;;;;-3.36;60.44;95734.66;4937051;29;20182;-79
2022/03/06 01:11:04;;;;;;;15.20;9.50;;;;;;;-3.37;61.05;95738.91;4936724;29;20612;-79
2022/03/06 01:13:29;;;;;;;17.80;10.47;;;;;;;-3.29;60.33;95734.34;4936022;29;20225;-79
2022/03/06 01:15:54;;;;;;;17.17;10.43;;;;;;;-3.19;60.45;95738.19;4920267;29;20189;-78
2022/03/06 01:18:20;;;;;;;18.33;9.90;;;;;;;-3.24;60.59;95742.63;4917217;29;20651;-81
2022/03/06 01:20:45;;;;;;;18.17;9.70;;;;;;;-3.13;59.94;95744.75;4907789;29;20254;-78
2022/03/06 01:23:11;;;;;;;16.80;9.80;;;;;;;-3.14;60.82;95741.38;4933169;29;20211;-80
2022/03/06 01:25:36;;;;;;;17.73;10.50;;;;;;;-3.15;60.33;95737.19;4932875;29;20186;-80
2022/03/06 01:28:02;;;;;;;17.97;9.87;;;;;;;-3.07;59.91;95738.63;4933276;29;20558;-79
2022/03/06 01:30:27;;;;;;;15.03;9.20;;;;;;;-3.11;60.17;95745.50;4917572;29;20189;-78
2022/03/06 01:32:53;;;;;;;17.80;10.30;;;;;;;-3.15;60.16;95734.66;4916658;29;20194;-77
2022/03/06 01:35:19;;;;;;;19.77;10.57;;;;;;;-3.18;60.48;95741.56;4917918;29;20281;-79
2022/03/06 01:37:44;;;;;;;18.93;10.43;;;;;;;-3.14;60.45;95733.75;4922076;29;20273;-79
2022/03/06 01:40:11;;;;;;;15.53;9.33;;;;;;;-3.21;61.12;95737.44;4916842;29;20206;-78
2022/03/06 01:42:41;;;;;;;15.80;9.37;;;;;;;-3.25;60.92;95741.00;4931784;29;20210;-79
2022/03/06 01:45:08;;;;;;;15.23;9.13;;;;;;;-3.18;60.87;95742.41;4917360;29;20185;-79
2022/03/06 01:47:37;;;;;;;18.30;10.20;;;;;;;-3.08;60.62;95742.88;4918673;29;20178;-79
2022/03/06 01:50:04;;;;;;;19.27;10.30;;;;;;;-3.24;61.26;95740.09;4917310;29;20624;-79
2022/03/06 01:52:29;;;;;;;17.40;10.07;;;;;;;-3.18;61.01;95737.34;4916649;29;20205;-78
2022/03/06 01:54:55;;;;;;;16.23;9.60;;;;;;;-3.11;60.84;95732.81;4917106;29;20202;-78
2022/03/06 01:57:20;;;;;;;18.43;10.13;;;;;;;-3.13;61.22;95729.50;4917319;29;20269;-78
2022/03/06 01:59:46;;;;;;;19.00;10.00;;;;;;;-3.22;61.62;95730.69;4916497;29;20178;-77
2022/03/06 02:02:11;;;;;;;18.17;9.53;;;;;;;-3.23;61.58;95729.06;4917644;29;20678;-79
2022/03/06 02:04:36;;;;;;;17.33;10.00;;;;;;;-3.28;61.56;95735.19;4936954;29;20596;-78
2022/03/06 02:07:02;;;;;;;16.93;10.43;;;;;;;-3.21;62.25;95732.34;4935952;29;20198;-79
2022/03/06 02:09:27;;;;;;;16.70;9.23;;;;;;;-3.39;62.18;95733.06;4901224;29;20189;-78
2022/03/06 02:14:37;;;;;;;18.67;10.70;;;;;;;-3.43;62.96;95727.28;4917207;29;20193;-80
2022/03/06 02:17:02;;;;;;;18.17;10.00;;;;;;;-3.47;63.06;95728.28;4916572;29;20186;-79
2022/03/06 02:19:27;;;;;;;19.53;10.90;;;;;;;-3.44;63.30;95724.81;4918094;29;20221;-79
2022/03/06 02:21:53;;;;;;;16.57;9.60;;;;;;;-3.48;63.49;95729.16;4899735;29;20206;-80
2022/03/06 02:24:18;;;;;;;18.23;9.57;;;;;;;-3.57;63.41;95723.63;4916806;29;20214;-78
2022/03/06 02:26:43;;;;;;;17.97;10.97;;;;;;;-3.72;63.85;95720.75;4917099;29;20543;-79
2022/03/06 02:29:08;;;;;;;17.93;10.13;;;;;;;-3.78;64.24;95722.72;4916823;29;20201;-79
2022/03/06 02:31:35;;;;;;;17.93;9.77;;;;;;;-3.74;65.16;95722.53;4916562;29;20183;-78
2022/03/06 02:34:01;;;;;;;16.50;10.10;;;;;;;-3.79;64.79;95724.44;4916992;29;20202;-80
2022/03/06 02:36:26;;;;;;;16.53;10.43;;;;;;;-3.74;64.57;95724.25;4916688;29;20249;-80
2022/03/06 02:38:51;;;;;;;14.50;9.63;;;;;;;-3.87;65.10;95710.38;4932166;29;20584;-79
2022/03/06 02:41:17;;;;;;;16.20;10.00;;;;;;;-3.76;65.01;95718.41;4915699;29;20210;-78
2022/03/06 02:43:42;;;;;;;17.83;10.03;;;;;;;-3.86;65.39;95717.09;4916220;29;20210;-77
2022/03/06 02:46:07;;;;;;;21.03;9.93;;;;;;;-3.99;65.34;95716.72;4916013;29;20186;-78
2022/03/06 02:48:33;;;;;;;19.80;10.67;;;;;;;-4.02;66.34;95719.38;4916229;29;20573;-78
2022/03/06 02:50:58;;;;;;;18.63;10.50;;;;;;;-3.98;66.14;95718.34;4916081;29;20206;-78
2022/03/06 02:53:23;;;;;;;17.47;10.70;;;;;;;-4.09;65.99;95721.28;4915302;29;20207;-78
2022/03/06 02:55:49;;;;;;;18.03;9.63;;;;;;;-4.06;66.44;95715.31;4931550;29;20259;-78
2022/03/06 02:58:14;;;;;;;20.20;10.90;;;;;;;-4.03;66.77;95722.78;4916074;29;20197;-78
2022/03/06 03:00:40;;;;;;;20.00;10.90;;;;;;;-4.13;66.51;95724.00;4915733;29;20250;-78
2022/03/06 03:03:05;;;;;;;18.80;10.07;;;;;;;-4.16;67.05;95719.84;4915246;29;20220;-80
2022/03/06 03:05:30;;;;;;;17.53;10.77;;;;;;;-4.10;67.26;95721.34;4915410;29;20190;-80
2022/03/06 03:07:56;;;;;;;17.17;10.67;;;;;;;-4.05;67.39;95725.38;4916164;29;20210;-79
2022/03/06 03:10:23;;;;;;;21.00;11.33;;;;;;;-4.14;67.10;95725.72;4915899;29;20277;-79
2022/03/06 03:12:49;;;;;;;18.47;10.43;;;;;;;-3.97;66.83;95730.19;4915470;29;20207;-79
2022/03/06 03:15:15;;;;;;;18.67;11.13;;;;;;;-4.07;67.48;95731.38;4916361;29;20710;-79
2022/03/06 03:17:41;;;;;;;17.57;11.03;;;;;;;-3.93;67.76;95735.97;4915730;29;20217;-80
2022/03/06 03:20:07;;;;;;;17.43;10.67;;;;;;;-4.04;67.44;95734.66;4914970;29;20277;-80
2022/03/06 03:22:33;;;;;;;17.73;10.00;;;;;;;-4.06;67.58;95735.59;4914993;29;20219;-80
2022/03/06 03:24:58;;;;;;;21.60;11.50;;;;;;;-4.05;67.46;95734.72;4915707;29;20201;-80
2022/03/06 03:27:23;;;;;;;17.20;10.53;;;;;;;-4.11;67.69;95737.47;4915338;29;20178;-77
2022/03/06 03:29:50;;;;;;;18.90;10.80;;;;;;;-4.08;68.76;95732.25;4915181;29;20213;-77
2022/03/06 03:32:15;;;;;;;20.77;10.93;;;;;;;-4.20;68.05;95727.63;4916169;29;20186;-79
2022/03/06 03:34:40;;;;;;;21.07;11.30;;;;;;;-4.16;68.44;95731.72;4915516;29;20204;-79
2022/03/06 03:37:06;;;;;;;16.53;10.17;;;;;;;-4.08;68.60;95734.81;4915622;29;20536;-79
2022/03/06 03:39:31;;;;;;;18.73;10.70;;;;;;;-4.18;69.25;95736.00;4900032;29;20190;-79
2022/03/06 03:41:56;;;;;;;20.50;11.40;;;;;;;-4.20;68.94;95737.78;4915047;29;20567;-78
2022/03/06 03:44:22;;;;;;;18.27;10.90;;;;;;;-4.28;69.39;95732.97;4915281;29;20295;-78
2022/03/06 03:46:47;;;;;;;20.30;11.20;;;;;;;-4.24;69.68;95734.53;4915571;29;20183;-78
2022/03/06 03:49:14;;;;;;;17.73;10.57;;;;;;;-4.27;68.79;95740.53;4915473;29;20288;-79
2022/03/06 03:51:40;;;;;;;20.80;11.17;;;;;;;-4.28;69.72;95738.06;4931155;29;20699;-79
2022/03/06 03:54:06;;;;;;;17.30;10.47;;;;;;;-4.27;69.48;95747.31;4915789;29;20300;-80
2022/03/06 03:56:31;;;;;;;18.03;11.23;;;;;;;-4.36;69.61;95748.47;4915478;29;20277;-79
2022/03/06 03:58:56;;;;;;;21.57;11.70;;;;;;;-4.39;69.86;95751.09;4915822;29;20194;-79
2022/03/06 04:01:22;;;;;;;18.93;10.43;;;;;;;-4.42;70.16;95752.91;4915043;29;20210;-79
2022/03/06 04:03:47;;;;;;;19.63;10.57;;;;;;;-4.47;69.84;95755.59;4915843;29;20202;-79
2022/03/06 04:06:12;;;;;;;17.23;10.70;;;;;;;-4.49;70.19;95754.00;4919511;29;20277;-79
2022/03/06 04:08:38;;;;;;;19.50;10.97;;;;;;;-4.49;70.32;95762.44;4919489;29;20269;-79
2022/03/06 04:11:04;;;;;;;19.17;11.63;;;;;;;-4.50;70.56;95767.56;4919761;29;20704;-79
2022/03/06 04:13:29;;;;;;;21.33;11.30;;;;;;;-4.51;71.01;95765.88;4920059;29;20205;-78
2022/03/06 04:15:55;;;;;;;20.53;11.30;;;;;;;-4.48;71.06;95763.28;4918810;29;20699;-79
2022/03/06 04:18:20;;;;;;;22.30;11.90;;;;;;;-4.50;71.07;95759.97;4919220;29;20553;-79
2022/03/06 04:20:45;;;;;;;19.70;11.10;;;;;;;-4.49;71.82;95764.97;4918026;29;20249;-80
2022/03/06 04:23:11;;;;;;;22.13;11.57;;;;;;;-4.43;71.14;95758.84;4918482;29;20205;-80
2022/03/06 04:25:36;;;;;;;20.60;11.73;;;;;;;-4.25;71.06;95765.00;4919969;29;20183;-79
2022/03/06 04:28:01;;;;;;;20.53;11.10;;;;;;;-4.24;70.88;95767.50;4918871;29;20178;-79
2022/03/06 04:30:27;;;;;;;19.20;11.87;;;;;;;-4.28;70.71;95769.31;4920143;29;20178;-78
2022/03/06 04:32:52;;;;;;;16.50;10.90;;;;;;;-4.30;71.14;95768.53;4918242;29;20205;-79
2022/03/06 04:35:18;;;;;;;19.10;11.10;;;;;;;-4.33;71.59;95772.88;4918770;29;20206;-79
2022/03/06 04:37:43;;;;;;;22.67;11.40;;;;;;;-4.42;71.58;95781.63;4918823;29;20201;-79
2022/03/06 04:40:09;;;;;;;22.33;11.80;;;;;;;-4.29;71.42;95774.44;4919998;29;20221;-79
2022/03/06 04:42:34;;;;;;;18.47;10.53;;;;;;;-4.22;71.34;95780.13;4922372;29;20206;-79
2022/03/06 04:45:00;;;;;;;18.90;11.23;;;;;;;-4.33;71.47;95786.41;4918331;29;20209;-79
2022/03/06 04:47:25;;;;;;;20.10;11.80;;;;;;;-4.32;71.77;95782.97;4918085;29;20186;-78
2022/03/06 04:49:50;;;;;;;19.40;11.37;;;;;;;-4.41;72.13;95777.41;4917912;29;20186;-79
2022/03/06 04:52:16;;;;;;;19.60;11.80;;;;;;;-4.42;72.19;95784.16;4917551;29;20196;-78
2022/03/06 04:54:41;;;;;;;19.57;10.93;;;;;;;-4.51;72.48;95787.00;4918216;29;20183;-78
2022/03/06 04:57:06;;;;;;;18.27;11.07;;;;;;;-4.51;72.48;95784.47;4917715;29;20194;-78
2022/03/06 04:59:32;;;;;;;17.87;10.80;;;;;;;-4.57;72.59;95792.28;4917683;29;20193;-78
2022/03/06 05:01:57;;;;;;;23.00;11.70;;;;;;;-4.45;72.39;95789.34;4917042;29;20613;-78
2022/03/06 05:04:22;;;;;;;20.80;11.27;;;;;;;-4.51;72.62;95792.06;4916992;29;20269;-78
2022/03/06 05:06:47;;;;;;;18.60;11.37;;;;;;;-4.46;72.87;95799.53;4917372;29;20190;-77
2022/03/06 05:09:13;;;;;;;15.87;10.67;;;;;;;-4.42;73.12;95794.28;4917737;29;20190;-78
2022/03/06 05:11:38;;;;;;;18.97;10.30;;;;;;;-4.45;72.95;95799.47;4933188;29;20209;-78
2022/03/06 05:14:04;;;;;;;19.80;11.43;;;;;;;-4.43;73.10;95791.81;4901846;29;20671;-78
2022/03/06 05:16:29;;;;;;;21.83;11.90;;;;;;;-4.49;73.56;95797.09;4917860;29;20182;-79
2022/03/06 05:18:54;;;;;;;20.20;11.33;;;;;;;-4.53;73.35;95798.06;4919242;29;20234;-78
2022/03/06 05:21:20;;;;;;;16.77;10.10;;;;;;;-4.57;73.46;95802.44;4915786;29;20250;-79
2022/03/06 05:23:45;;;;;;;20.73;11.40;;;;;;;-4.55;73.62;95803.19;4917618;29;20219;-79
2022/03/06 05:26:10;;;;;;;20.70;11.63;;;;;;;-4.57;73.14;95804.97;4917739;29;20193;-79
2022/03/06 05:28:36;;;;;;;17.83;10.63;;;;;;;-4.52;73.64;95805.63;4917536;29;20185;-77
2022/03/06 05:31:01;;;;;;;20.43;11.37;;;;;;;-4.36;73.72;95803.41;4917902;29;20225;-78
2022/03/06 05:33:26;;;;;;;19.87;11.53;;;;;;;-4.45;73.74;95806.25;4916783;29;20294;-78
2022/03/06 05:35:52;;;;;;;20.57;12.07;;;;;;;-4.47;74.34;95806.31;4917239;29;20197;-78
2022/03/06 05:38:17;;;;;;;20.47;11.80;;;;;;;-4.39;74.16;95803.53;4901558;29;20655;-77
2022/03/06 05:40:42;;;;;;;21.10;10.67;;;;;;;-4.51;74.50;95812.34;4917309;29;20210;-78
2022/03/06 05:43:08;;;;;;;22.10;12.60;;;;;;;-4.53;74.66;95816.63;4916938;29;20202;-79
2022/03/06 05:45:33;;;;;;;19.80;11.60;;;;;;;-4.46;75.07;95815.56;4933371;29;20264;-79
2022/03/06 05:47:58;;;;;;;19.43;11.67;;;;;;;-4.38;74.96;95815.31;4917595;29;20187;-78
2022/03/06 05:50:24;;;;;;;19.27;11.57;;;;;;;-4.44;75.00;95818.88;4916503;29;20231;-78
2022/03/06 05:52:49;;;;;;;21.33;12.37;;;;;;;-4.59;75.35;95814.31;4917303;29;20589;-77
2022/03/06 05:55:14;;;;;;;21.97;13.03;;;;;;;-4.61;75.45;95818.59;4922814;29;20201;-78
2022/03/06 05:57:40;;;;;;;19.50;11.97;;;;;;;-4.62;75.70;95817.75;4914072;29;20205;-77
2022/03/06 06:00:08;;;;;;;23.80;12.27;;;;;;;-4.63;75.62;95820.34;4932621;29;20313;-79
2022/03/06 06:02:37;;;;;;;22.67;11.60;;;;;;;-4.55;75.16;95815.88;4933538;29;20577;-79
2022/03/06 06:05:04;;;;;;;19.73;11.67;;;;;;;-4.48;75.87;95821.56;4935868;29;20178;-78
2022/03/06 06:07:29;;;;;;;21.43;12.33;;;;;;;-4.50;75.15;95826.69;4934686;29;20197;-77
2022/03/06 06:09:54;;;;;;;18.87;11.30;;;;;;;-4.54;75.66;95820.06;4919431;29;20193;-79
2022/03/06 06:12:19;;;;;;;22.50;11.57;;;;;;;-4.42;75.85;95824.72;4919450;29;20639;-79
2022/03/06 06:14:45;;;;;;;21.80;12.47;;;;;;;-4.36;75.56;95831.28;4935227;29;20229;-79
2022/03/06 06:17:10;;;;;;;22.30;12.40;;;;;;;-4.40;75.51;95825.50;4936170;29;20182;-78
2022/03/06 06:19:36;;;;;;;24.87;13.27;;;;;;;-4.34;75.70;95827.81;4936474;29;20616;-79
2022/03/06 06:22:01;;;;;;;22.17;12.97;;;;;;;-4.35;75.50;95832.94;4918777;29;20301;-78
2022/03/06 06:24:26;;;;;;;20.07;11.40;;;;;;;-4.36;75.14;95834.66;4934553;29;20641;-78
2022/03/06 06:26:54;;;;;;;19.07;11.80;;;;;;;-4.36;75.85;95824.50;4918713;29;20182;-78
2022/03/06 06:29:19;;;;;;;22.80;12.60;;;;;;;-4.27;75.33;95825.91;4919627;29;20186;-78
2022/03/06 06:31:45;;;;;;;22.20;13.17;;;;;;;-4.19;74.75;95823.13;4934683;29;20193;-78
2022/03/06 06:34:10;;;;;;;22.93;13.00;;;;;;;-4.14;74.37;95824.63;4918769;29;20705;-79
2022/03/06 06:36:35;;;;;;;21.80;12.73;;;;;;;-4.16;74.62;95830.63;4934757;29;20181;-78
2022/03/06 06:39:01;;;;;;;18.90;11.17;;;;;;;-4.04;74.60;95827.69;4919453;29;20270;-79
2022/03/06 06:41:26;;;;;;;19.77;11.53;;;;;;;-3.92;74.14;95827.25;4934842;29;20253;-78
2022/03/06 06:43:51;;;;;;;20.80;11.40;;;;;;;-3.83;73.89;95832.00;4935873;29;20204;-77
2022/03/06 06:46:17;;;;;;;21.93;13.67;;;;;;;-3.72;73.63;95832.44;4934156;29;20667;-78
2022/03/06 06:48:42;;;;;;;24.27;12.90;;;;;;;-3.48;74.15;95837.50;4917803;29;20181;-79
2022/03/06 06:51:08;;;;;;;21.80;12.20;;;;;;;-3.36;73.09;95837.06;4918295;29;20676;-77
2022/03/06 06:53:34;;;;;;;23.07;12.43;;;;;;;-3.20;72.76;95840.69;4918220;29;20286;-79
2022/03/06 06:55:59;;;;;;;23.13;13.23;;;;;;;-3.01;72.19;95839.97;4918728;29;20229;-79
2022/03/06 06:58:24;;;;;;;21.73;12.63;;;;;;;-2.97;71.33;95839.81;4918728;29;20254;-76
2022/03/06 07:00:50;;;;;;;21.20;12.83;;;;;;;-2.84;71.13;95832.53;4918312;29;20222;-79
2022/03/06 07:03:15;;;;;;;19.67;11.67;;;;;;;-2.62;70.90;95843.53;4933604;29;20244;-78
2022/03/06 07:05:41;;;;;;;20.23;12.63;;;;;;;-2.62;70.20;95842.69;4933642;29;20236;-77
2022/03/06 07:08:06;;;;;;;21.43;12.10;;;;;;;-2.53;70.59;95841.50;4917288;29;20197;-79
2022/03/06 07:10:31;;;;;;;19.93;12.07;;;;;;;-2.24;69.57;95838.59;4918945;29;20182;-80
2022/03/06 07:12:58;;;;;;;22.77;13.27;;;;;;;-2.36;69.38;95850.13;4917438;29;20216;-78
2022/03/06 07:15:32;;;;;;;22.10;12.30;;;;;;;-2.30;69.59;95849.00;4918792;29;20184;-79
2022/03/06 07:17:58;;;;;;;22.77;13.00;;;;;;;-2.28;69.59;95855.72;4934220;29;20572;-79
2022/03/06 07:20:24;;;;;;;21.57;12.33;;;;;;;-2.19;69.73;95857.06;4933102;29;20197;-79
2022/03/06 07:26:22;;;;;;;20.80;12.33;;;;;;;-2.18;69.03;95860.44;1384937;27;21320;-79
2022/03/06 07:28:48;;;;;;;20.30;12.43;;;;;;;-2.12;69.13;95858.47;4899528;29;20254;-81
2022/03/06 07:31:38;;;;;;;;;;;;;;;;;;;;;
2022/03/06 07:34:37;;;;;;;20.20;12.00;;;;;;;-1.96;69.10;95863.72;4908901;29;20221;-81
2022/03/06 07:37:23;;;;;;;19.93;12.73;;;;;;;-2.05;69.41;95870.00;4914788;29;20254;-81
2022/03/06 07:39:54;;;;;;;21.93;11.53;;;;;;;-1.93;68.74;95862.78;4899317;29;20643;-80
2022/03/06 07:42:33;;;;;;;21.60;12.93;;;;;;;-1.86;68.34;95867.53;4897988;29;20210;-80
2022/03/06 07:45:27;;;;;;;21.30;11.90;;;;;;;-1.82;68.65;95861.44;4915321;29;20194;-81
2022/03/06 07:48:05;;;;;;;19.60;11.83;;;;;;;-1.80;67.62;95871.53;4899654;29;20194;-79
2022/03/06 07:51:29;;;;;;;;;;;;;;;;;;;;;
2022/03/06 07:54:21;;;;;;;23.27;13.07;;;;;;;-1.64;67.90;95877.63;4895407;29;20829;-80
2022/03/06 07:57:30;;;;;;;19.87;12.10;;;;;;;-1.57;67.42;95876.50;4863969;29;20195;-80
2022/03/06 08:00:14;;;;;;;20.87;12.30;;;;;;;-1.47;67.08;95877.75;4865541;29;20195;-81
2022/03/06 08:06:29;;;;;;;23.00;13.13;;;;;;;-1.40;67.23;95882.56;4883307;29;20208;-78
2022/03/06 08:09:30;;;;;;;24.13;13.17;;;;;;;-1.23;66.42;95891.13;4882350;29;20258;-79
2022/03/06 08:12:48;;;;;;;20.20;12.37;;;;;;;-1.29;66.96;95891.38;4846738;29;20254;-81
2022/03/06 08:15:54;;;;;;;;;;;;;;;;;;;;;
2022/03/06 08:18:47;;;;;;;18.93;12.27;;;;;;;-1.28;66.60;95884.56;4860710;29;20222;-79
2022/03/06 08:21:49;;;;;;;20.67;12.57;;;;;;;-1.05;66.49;95879.28;4845773;29;20236;-80
2022/03/06 08:25:12;;;;;;;21.87;13.57;;;;;;;-0.99;66.56;95886.63;4828447;29;20303;-81
2022/03/06 08:32:05;;;;;;;22.07;13.10;;;;;;;-0.83;66.29;95881.66;4802722;29;20198;-80
2022/03/06 08:39:08;;;;;;;;;;;;;;;;;;;;;
2022/03/06 08:44:42;;;;;;;23.87;12.90;;;;;;;-0.47;65.17;95902.09;4785477;29;20219;-81
2022/03/06 08:47:08;;;;;;;23.80;13.47;;;;;;;-0.29;64.47;95892.72;4773169;30;20739;-81
2022/03/06 08:52:54;;;;;;;22.67;13.17;;;;;;;-0.40;64.44;95906.00;4883886;23;20290;-81
2022/03/06 08:56:28;;;;;;;;;;;;;;;;;;;;;
2022/03/06 10:03:02;;;;;;;25.77;16.30;;;;;;;1.20;53.86;95894.50;4945164;28;20306;-79
2022/03/06 10:05:42;;;;;;;18.07;11.57;;;;;;;1.59;53.31;95898.34;4894943;29;20201;-79
2022/03/06 10:08:31;;;;;;;18.80;11.90;;;;;;;1.64;52.56;95899.75;4896049;29;20275;-79
2022/03/06 10:11:03;;;;;;;19.63;11.60;;;;;;;1.83;51.44;95898.72;4889359;29;20767;-78
2022/03/06 10:13:39;;;;;;;15.90;10.77;;;;;;;1.60;51.89;95900.03;4888974;29;20800;-78
2022/03/06 10:16:22;;;;;;;15.97;11.00;;;;;;;1.69;50.66;95896.94;4897257;29;20612;-79
2022/03/06 10:18:54;;;;;;;16.20;11.13;;;;;;;1.60;51.26;95903.41;4881023;29;20187;-78
2022/03/06 10:21:27;;;;;;;18.57;11.43;;;;;;;1.60;51.71;95907.69;4880242;29;20750;-78
2022/03/06 10:24:00;;;;;;;20.23;10.33;;;;;;;1.76;50.12;95900.78;4895943;29;20206;-77
2022/03/06 10:26:27;;;;;;;19.83;11.60;;;;;;;2.12;51.24;95897.94;4896520;29;20191;-78
2022/03/06 10:28:55;;;;;;;17.23;10.87;;;;;;;2.38;49.82;95898.94;4880569;29;20832;-78
2022/03/06 10:31:23;;;;;;;21.03;11.60;;;;;;;2.27;48.95;95897.03;4895620;29;20243;-79
2022/03/06 10:34:01;;;;;;;18.47;10.83;;;;;;;2.58;49.98;95895.25;4896441;29;20214;-78
2022/03/06 10:36:40;;;;;;;16.70;10.57;;;;;;;2.97;48.43;95901.47;4942994;29;20197;-79
2022/03/06 10:39:20;;;;;;;15.90;11.07;;;;;;;2.43;47.31;95893.56;4929931;29;20280;-78
2022/03/06 10:41:48;;;;;;;17.77;11.03;;;;;;;2.85;48.56;95903.03;4968389;28;20742;-78
2022/03/06 10:44:14;;;;;;;16.93;11.57;;;;;;;2.91;47.73;95894.13;4944638;28;20800;-78
2022/03/06 10:46:41;;;;;;;20.57;11.90;;;;;;;2.73;48.18;95914.00;4937332;29;20196;-78
2022/03/06 10:49:15;;;;;;;20.57;11.87;;;;;;;2.22;49.15;95899.03;4954360;29;20224;-78
2022/03/06 10:51:46;;;;;;;17.13;10.37;;;;;;;2.93;48.30;95894.88;4954267;29;20172;-79
2022/03/06 10:54:14;;;;;;;20.27;11.40;;;;;;;3.04;48.08;95893.31;4938610;29;20681;-77
2022/03/06 10:56:43;;;;;;;15.93;10.60;;;;;;;3.21;45.10;95896.59;4954683;29;20193;-78
2022/03/06 10:59:09;;;;;;;17.50;10.17;;;;;;;2.82;44.72;95905.75;4950445;28;20205;-78
2022/03/06 11:01:34;;;;;;;15.17;9.97;;;;;;;2.82;44.26;95898.91;4943907;29;20274;-78
2022/03/06 11:18:02;;;;;;;15.33;10.70;;;;;;;2.12;46.88;95904.75;4916507;29;20210;-88
2022/03/06 11:20:29;;;;;;;18.87;11.87;;;;;;;1.88;47.55;95897.56;4950586;29;20221;-81
2022/03/06 11:23:20;;;;;;;18.40;11.40;;;;;;;1.90;47.96;95898.31;4956580;28;20236;-81
2022/03/06 11:25:58;;;;;;;15.50;10.40;;;;;;;2.02;47.15;95894.22;4957041;28;20222;-81
2022/03/06 11:28:29;;;;;;;20.13;12.03;;;;;;;2.24;47.52;95901.50;4952823;29;20248;-82
2022/03/06 11:30:58;;;;;;;16.80;11.03;;;;;;;2.21;46.28;95901.69;4952133;28;20187;-82
2022/03/06 11:33:23;;;;;;;16.40;10.77;;;;;;;1.82;46.93;95902.19;4950126;29;20227;-81
2022/03/06 11:35:50;;;;;;;17.60;11.37;;;;;;;1.75;46.25;95898.31;4935421;29;20583;-81
2022/03/06 11:38:17;;;;;;;17.20;11.33;;;;;;;1.92;46.75;95899.03;4935439;29;20181;-81
2022/03/06 11:40:49;;;;;;;18.57;11.60;;;;;;;2.06;46.69;95895.69;4919444;29;20265;-80
2022/03/06 11:43:33;;;;;;;17.13;10.73;;;;;;;2.25;46.72;95893.72;4958108;28;20259;-82
2022/03/06 11:45:58;;;;;;;16.37;10.03;;;;;;;2.26;46.43;95892.00;4954401;29;20199;-80
2022/03/06 11:48:50;;;;;;;16.07;10.03;;;;;;;2.33;46.76;95895.03;4950652;29;20182;-79
2022/03/06 11:51:22;;;;;;;15.93;10.43;;;;;;;2.62;46.54;95893.31;4946979;29;20196;-79
2022/03/06 12:10:10;;;;;;;16.97;10.00;;;;;;;4.10;41.45;95874.63;4768125;30;20261;-80
2022/03/06 12:12:37;;;;;;;12.60;8.87;;;;;;;4.44;40.38;95862.94;4753460;30;20860;-78
2022/03/06 12:15:14;;;;;;;17.13;10.23;;;;;;;4.32;39.36;95860.34;4752395;30;20291;-78
2022/03/06 12:17:39;;;;;;;13.43;9.70;;;;;;;4.64;38.90;95856.44;4767527;30;20555;-78
2022/03/06 12:20:08;;;;;;;15.37;9.60;;;;;;;4.37;39.62;95853.97;4767262;30;20199;-78
2022/03/06 12:22:33;;;;;;;14.70;11.57;;;;;;;4.60;39.58;95852.44;4766252;30;20250;-78
2022/03/06 12:25:04;;;;;;;15.90;10.83;;;;;;;4.70;38.31;95857.78;4782854;29;20192;-78
2022/03/06 12:27:30;;;;;;;15.83;11.30;;;;;;;4.07;39.24;95859.41;4770930;30;20668;-78
2022/03/06 12:30:01;;;;;;;12.93;9.43;;;;;;;3.73;39.04;95850.50;4756021;30;20200;-78
2022/03/06 12:32:29;;;;;;;13.07;9.70;;;;;;;3.37;40.16;95854.47;4755452;30;20271;-77
2022/03/06 12:34:57;;;;;;;12.07;8.53;;;;;;;3.51;40.43;95842.50;4785856;29;20560;-78
2022/03/06 12:37:40;;;;;;;10.83;8.30;;;;;;;3.57;39.67;95844.69;4785404;29;20227;-78
2022/03/06 12:40:14;;;;;;;15.23;10.37;;;;;;;3.25;40.28;95851.84;4788586;29;20327;-78
2022/03/06 12:42:42;;;;;;;11.50;8.40;;;;;;;2.98;40.23;95851.81;4825222;29;20245;-78
2022/03/06 12:45:14;;;;;;;13.00;9.10;;;;;;;2.77;41.28;95854.75;4879728;29;20192;-78
2022/03/06 12:47:41;;;;;;;12.37;8.60;;;;;;;2.95;40.75;95860.53;4891770;29;20670;-76
2022/03/06 12:50:09;;;;;;;12.07;8.37;;;;;;;2.83;41.14;95853.56;4917423;29;20182;-78
2022/03/06 12:52:34;;;;;;;14.43;8.50;;;;;;;2.66;40.95;95851.22;4919356;29;20722;-78
2022/03/06 12:55:03;;;;;;;13.10;7.80;;;;;;;2.63;41.05;95848.81;4902415;29;20213;-77
2022/03/06 12:57:39;;;;;;;12.43;8.93;;;;;;;2.36;42.17;95844.41;4918153;29;20186;-79
2022/03/06 13:00:09;;;;;;;11.57;8.07;;;;;;;2.72;41.04;95849.06;4918902;29;20279;-78
2022/03/06 13:02:34;;;;;;;11.20;8.40;;;;;;;3.00;41.08;95849.97;4918023;29;20689;-77
2022/03/06 13:04:59;;;;;;;13.23;8.10;;;;;;;3.07;40.58;95849.50;4902646;29;20204;-79
2022/03/06 13:07:30;;;;;;;10.93;8.50;;;;;;;3.26;40.73;95846.59;4918280;29;20197;-78
2022/03/06 13:09:57;;;;;;;11.10;8.40;;;;;;;2.99;40.89;95849.13;4902515;29;20275;-79
2022/03/06 13:12:23;;;;;;;14.00;8.70;;;;;;;2.86;40.47;95845.69;4917940;29;20178;-77
2022/03/06 13:14:48;;;;;;;12.03;8.93;;;;;;;2.58;40.86;95849.09;4902169;29;20182;-78
2022/03/06 13:17:18;;;;;;;10.03;8.00;;;;;;;2.52;41.24;95854.56;4902284;29;20545;-78
2022/03/06 13:19:47;;;;;;;12.10;8.73;;;;;;;2.60;41.46;95846.44;4902583;29;20203;-77
2022/03/06 13:22:17;;;;;;;13.73;9.43;;;;;;;2.44;40.96;95849.91;4917618;29;20732;-79
2022/03/06 13:24:46;;;;;;;13.20;9.50;;;;;;;2.19;41.57;95840.25;4903135;29;20230;-80
2022/03/06 13:27:23;;;;;;;17.87;11.70;;;;;;;2.16;41.85;95844.75;4918485;29;20238;-79
2022/03/06 13:30:21;;;;;;;14.43;10.33;;;;;;;2.24;41.76;95840.84;4918388;29;20669;-78
2022/03/06 13:32:47;;;;;;;15.37;10.33;;;;;;;2.25;41.88;95836.53;4896499;29;20228;-78
2022/03/06 13:35:34;;;;;;;13.87;9.40;;;;;;;2.33;41.49;95830.97;4918317;29;20265;-79